Aviation Digital Data Service (ADDS)

Output produced by METARs form (0213 UTC 22 April 2019)
found at http://www.aviationweather.gov/metar/data/
 
METAR text: PTRO 220154Z 05011G19KT 15SM SCT016 BKN120 BKN300 30/24 A2980
Conditions at: PTRO (BABELTHUAP/KOROR, FM) observed 0154 UTC 22 April 2019
Temperature: 30.0°C (86°F)
Dewpoint: 24.0°C (75°F) [RH = 70%]
Pressure (altimeter): 29.80 inches Hg (1009.2 mb)
Winds: from the NE (50 degrees) at 13 MPH (11 knots; 5.7 m/s)
gusting to 22 MPH (19 knots; 9.8 m/s)
Visibility: 15 miles (24 km)
Ceiling: 12000 feet AGL
Clouds: scattered clouds at 1600 feet AGL
broken clouds at 12000 feet AGL
broken clouds at 30000 feet AGL
Weather: no significant weather observed at this time

METAR text: PTRO 220053Z 04013G19KT 15SM SCT016 BKN120 BKN300 29/24 A2981
Conditions at: PTRO (BABELTHUAP/KOROR, FM) observed 0053 UTC 22 April 2019
Temperature: 29.0°C (84°F)
Dewpoint: 24.0°C (75°F) [RH = 74%]
Pressure (altimeter): 29.81 inches Hg (1009.6 mb)
Winds: from the NE (40 degrees) at 15 MPH (13 knots; 6.7 m/s)
gusting to 22 MPH (19 knots; 9.8 m/s)
Visibility: 15 miles (24 km)
Ceiling: 12000 feet AGL
Clouds: scattered clouds at 1600 feet AGL
broken clouds at 12000 feet AGL
broken clouds at 30000 feet AGL
Weather: no significant weather observed at this time

METAR text: PTRO 212354Z 04008G16KT 15SM SCT016 BKN120 BKN300 29/24 A2983
Conditions at: PTRO (BABELTHUAP/KOROR, FM) observed 2354 UTC 21 April 2019
Temperature: 29.0°C (84°F)
Dewpoint: 24.0°C (75°F) [RH = 74%]
Pressure (altimeter): 29.83 inches Hg (1010.2 mb)
Winds: from the NE (40 degrees) at 9 MPH (8 knots; 4.1 m/s)
gusting to 18 MPH (16 knots; 8.2 m/s)
Visibility: 15 miles (24 km)
Ceiling: 12000 feet AGL
Clouds: scattered clouds at 1600 feet AGL
broken clouds at 12000 feet AGL
broken clouds at 30000 feet AGL
Weather: no significant weather observed at this time

METAR text: PTRO 212250Z 05009G16KT 15SM SCT016 BKN120 BKN300 28/24 A2983
Conditions at: PTRO (BABELTHUAP/KOROR, FM) observed 2250 UTC 21 April 2019
Temperature: 28.0°C (82°F)
Dewpoint: 24.0°C (75°F) [RH = 79%]
Pressure (altimeter): 29.83 inches Hg (1010.2 mb)
Winds: from the NE (50 degrees) at 10 MPH (9 knots; 4.6 m/s)
gusting to 18 MPH (16 knots; 8.2 m/s)
Visibility: 15 miles (24 km)
Ceiling: 12000 feet AGL
Clouds: scattered clouds at 1600 feet AGL
broken clouds at 12000 feet AGL
broken clouds at 30000 feet AGL
Weather: no significant weather observed at this time

METAR text: PTRO 212150Z 03003KT 15SM SCT016 BKN120 BKN300 26/24 A2981
Conditions at: PTRO (BABELTHUAP/KOROR, FM) observed 2150 UTC 21 April 2019
Temperature: 26.0°C (79°F)
Dewpoint: 24.0°C (75°F) [RH = 89%]
Pressure (altimeter): 29.81 inches Hg (1009.6 mb)
Winds: from the NNE (30 degrees) at 3 MPH (3 knots; 1.5 m/s)
Visibility: 15 miles (24 km)
Ceiling: 12000 feet AGL
Clouds: scattered clouds at 1600 feet AGL
broken clouds at 12000 feet AGL
broken clouds at 30000 feet AGL
Weather: no significant weather observed at this time

METAR text: PTRO 212050Z 04004KT 15SM SCT016 BKN120 BKN300 25/23 A2979
Conditions at: PTRO (BABELTHUAP/KOROR, FM) observed 2050 UTC 21 April 2019
Temperature: 25.0°C (77°F)
Dewpoint: 23.0°C (73°F) [RH = 89%]
Pressure (altimeter): 29.79 inches Hg (1008.9 mb)
Winds: from the NE (40 degrees) at 5 MPH (4 knots; 2.1 m/s)
Visibility: 15 miles (24 km)
Ceiling: 12000 feet AGL
Clouds: scattered clouds at 1600 feet AGL
broken clouds at 12000 feet AGL
broken clouds at 30000 feet AGL
Weather: no significant weather observed at this time

METAR text: PTRO 211950Z 04004KT 15SM SCT016 BKN120 BKN300 25/23 A2979
Conditions at: PTRO (BABELTHUAP/KOROR, FM) observed 1950 UTC 21 April 2019
Temperature: 25.0°C (77°F)
Dewpoint: 23.0°C (73°F) [RH = 89%]
Pressure (altimeter): 29.79 inches Hg (1008.9 mb)
Winds: from the NE (40 degrees) at 5 MPH (4 knots; 2.1 m/s)
Visibility: 15 miles (24 km)
Ceiling: 12000 feet AGL
Clouds: scattered clouds at 1600 feet AGL
broken clouds at 12000 feet AGL
broken clouds at 30000 feet AGL
Weather: no significant weather observed at this time

METAR text: PTRO 211850Z 02003KT 15SM SCT016 BKN120 BKN300 25/23 A2979
Conditions at: PTRO (BABELTHUAP/KOROR, FM) observed 1850 UTC 21 April 2019
Temperature: 25.0°C (77°F)
Dewpoint: 23.0°C (73°F) [RH = 89%]
Pressure (altimeter): 29.79 inches Hg (1008.9 mb)
Winds: from the NNE (20 degrees) at 3 MPH (3 knots; 1.5 m/s)
Visibility: 15 miles (24 km)
Ceiling: 12000 feet AGL
Clouds: scattered clouds at 1600 feet AGL
broken clouds at 12000 feet AGL
broken clouds at 30000 feet AGL
Weather: no significant weather observed at this time

METAR text: PTRO 211750Z 07005KT 15SM SCT016 BKN120 BKN300 26/23 A2980
Conditions at: PTRO (BABELTHUAP/KOROR, FM) observed 1750 UTC 21 April 2019
Temperature: 26.0°C (79°F)
Dewpoint: 23.0°C (73°F) [RH = 84%]
Pressure (altimeter): 29.80 inches Hg (1009.2 mb)
Winds: from the ENE (70 degrees) at 6 MPH (5 knots; 2.6 m/s)
Visibility: 15 miles (24 km)
Ceiling: 12000 feet AGL
Clouds: scattered clouds at 1600 feet AGL
broken clouds at 12000 feet AGL
broken clouds at 30000 feet AGL
Weather: no significant weather observed at this time

METAR text: PTRO 211650Z 07005KT 15SM SCT016 BKN120 BKN300 26/23 A2982
Conditions at: PTRO (BABELTHUAP/KOROR, FM) observed 1650 UTC 21 April 2019
Temperature: 26.0°C (79°F)
Dewpoint: 23.0°C (73°F) [RH = 84%]
Pressure (altimeter): 29.82 inches Hg (1009.9 mb)
Winds: from the ENE (70 degrees) at 6 MPH (5 knots; 2.6 m/s)
Visibility: 15 miles (24 km)
Ceiling: 12000 feet AGL
Clouds: scattered clouds at 1600 feet AGL
broken clouds at 12000 feet AGL
broken clouds at 30000 feet AGL
Weather: no significant weather observed at this time

METAR text: PTRO 211554Z 05005KT 15SM SCT016 BKN120 BKN300 26/23 A2984
Conditions at: PTRO (BABELTHUAP/KOROR, FM) observed 1554 UTC 21 April 2019
Temperature: 26.0°C (79°F)
Dewpoint: 23.0°C (73°F) [RH = 84%]
Pressure (altimeter): 29.84 inches Hg (1010.6 mb)
Winds: from the NE (50 degrees) at 6 MPH (5 knots; 2.6 m/s)
Visibility: 15 miles (24 km)
Ceiling: 12000 feet AGL
Clouds: scattered clouds at 1600 feet AGL
broken clouds at 12000 feet AGL
broken clouds at 30000 feet AGL
Weather: no significant weather observed at this time

METAR text: PTRO 211452Z 07005KT 15SM SCT016 BKN120 BKN300 26/23 A2984
Conditions at: PTRO (BABELTHUAP/KOROR, FM) observed 1452 UTC 21 April 2019
Temperature: 26.0°C (79°F)
Dewpoint: 23.0°C (73°F) [RH = 84%]
Pressure (altimeter): 29.84 inches Hg (1010.6 mb)
Winds: from the ENE (70 degrees) at 6 MPH (5 knots; 2.6 m/s)
Visibility: 15 miles (24 km)
Ceiling: 12000 feet AGL
Clouds: scattered clouds at 1600 feet AGL
broken clouds at 12000 feet AGL
broken clouds at 30000 feet AGL
Weather: no significant weather observed at this time

METAR text: PTRO 211351Z 06004KT 15SM SCT016 BKN120 BKN300 26/23 A2985
Conditions at: PTRO (BABELTHUAP/KOROR, FM) observed 1351 UTC 21 April 2019
Temperature: 26.0°C (79°F)
Dewpoint: 23.0°C (73°F) [RH = 84%]
Pressure (altimeter): 29.85 inches Hg (1010.9 mb)
Winds: from the ENE (60 degrees) at 5 MPH (4 knots; 2.1 m/s)
Visibility: 15 miles (24 km)
Ceiling: 12000 feet AGL
Clouds: scattered clouds at 1600 feet AGL
broken clouds at 12000 feet AGL
broken clouds at 30000 feet AGL
Weather: no significant weather observed at this time

METAR text: PTRO 211252Z 06005KT 15SM SCT016 BKN120 BKN300 26/23 A2984
Conditions at: PTRO (BABELTHUAP/KOROR, FM) observed 1252 UTC 21 April 2019
Temperature: 26.0°C (79°F)
Dewpoint: 23.0°C (73°F) [RH = 84%]
Pressure (altimeter): 29.84 inches Hg (1010.6 mb)
Winds: from the ENE (60 degrees) at 6 MPH (5 knots; 2.6 m/s)
Visibility: 15 miles (24 km)
Ceiling: 12000 feet AGL
Clouds: scattered clouds at 1600 feet AGL
broken clouds at 12000 feet AGL
broken clouds at 30000 feet AGL
Weather: no significant weather observed at this time

METAR text: PTRO 211154Z 07005KT 15SM SCT016 BKN120 BKN300 26/23 A2983
Conditions at: PTRO (BABELTHUAP/KOROR, FM) observed 1154 UTC 21 April 2019
Temperature: 26.0°C (79°F)
Dewpoint: 23.0°C (73°F) [RH = 84%]
Pressure (altimeter): 29.83 inches Hg (1010.2 mb)
Winds: from the ENE (70 degrees) at 6 MPH (5 knots; 2.6 m/s)
Visibility: 15 miles (24 km)
Ceiling: 12000 feet AGL
Clouds: scattered clouds at 1600 feet AGL
broken clouds at 12000 feet AGL
broken clouds at 30000 feet AGL
Weather: no significant weather observed at this time

METAR text: PTRO 211054Z 06005KT 15SM SCT016 BKN120 BKN300 26/23 A2981
Conditions at: PTRO (BABELTHUAP/KOROR, FM) observed 1054 UTC 21 April 2019
Temperature: 26.0°C (79°F)
Dewpoint: 23.0°C (73°F) [RH = 84%]
Pressure (altimeter): 29.81 inches Hg (1009.6 mb)
Winds: from the ENE (60 degrees) at 6 MPH (5 knots; 2.6 m/s)
Visibility: 15 miles (24 km)
Ceiling: 12000 feet AGL
Clouds: scattered clouds at 1600 feet AGL
broken clouds at 12000 feet AGL
broken clouds at 30000 feet AGL
Weather: no significant weather observed at this time

METAR text: PTRO 210953Z 06006KT 15SM SCT016 BKN120 BKN300 27/23 A2981
Conditions at: PTRO (BABELTHUAP/KOROR, FM) observed 0953 UTC 21 April 2019
Temperature: 27.0°C (81°F)
Dewpoint: 23.0°C (73°F) [RH = 79%]
Pressure (altimeter): 29.81 inches Hg (1009.6 mb)
Winds: from the ENE (60 degrees) at 7 MPH (6 knots; 3.1 m/s)
Visibility: 15 miles (24 km)
Ceiling: 12000 feet AGL
Clouds: scattered clouds at 1600 feet AGL
broken clouds at 12000 feet AGL
broken clouds at 30000 feet AGL
Weather: no significant weather observed at this time

METAR text: PTRO 210851Z 06007G14KT 15SM SCT016 BKN120 BKN300 28/23 A2977
Conditions at: PTRO (BABELTHUAP/KOROR, FM) observed 0851 UTC 21 April 2019
Temperature: 28.0°C (82°F)
Dewpoint: 23.0°C (73°F) [RH = 74%]
Pressure (altimeter): 29.77 inches Hg (1008.2 mb)
Winds: from the ENE (60 degrees) at 8 MPH (7 knots; 3.6 m/s)
gusting to 16 MPH (14 knots; 7.2 m/s)
Visibility: 15 miles (24 km)
Ceiling: 12000 feet AGL
Clouds: scattered clouds at 1600 feet AGL
broken clouds at 12000 feet AGL
broken clouds at 30000 feet AGL
Weather: no significant weather observed at this time

METAR text: PTRO 210754Z 04008G14KT 15SM SCT016 BKN120 BKN300 29/23 A2976
Conditions at: PTRO (BABELTHUAP/KOROR, FM) observed 0754 UTC 21 April 2019
Temperature: 29.0°C (84°F)
Dewpoint: 23.0°C (73°F) [RH = 70%]
Pressure (altimeter): 29.76 inches Hg (1007.9 mb)
Winds: from the NE (40 degrees) at 9 MPH (8 knots; 4.1 m/s)
gusting to 16 MPH (14 knots; 7.2 m/s)
Visibility: 15 miles (24 km)
Ceiling: 12000 feet AGL
Clouds: scattered clouds at 1600 feet AGL
broken clouds at 12000 feet AGL
broken clouds at 30000 feet AGL
Weather: no significant weather observed at this time

METAR text: PTRO 210650Z 08010G15KT 15SM SCT017 BKN120 BKN300 30/23 A2976
Conditions at: PTRO (BABELTHUAP/KOROR, FM) observed 0650 UTC 21 April 2019
Temperature: 30.0°C (86°F)
Dewpoint: 23.0°C (73°F) [RH = 66%]
Pressure (altimeter): 29.76 inches Hg (1007.9 mb)
Winds: from the E (80 degrees) at 12 MPH (10 knots; 5.1 m/s)
gusting to 17 MPH (15 knots; 7.7 m/s)
Visibility: 15 miles (24 km)
Ceiling: 12000 feet AGL
Clouds: scattered clouds at 1700 feet AGL
broken clouds at 12000 feet AGL
broken clouds at 30000 feet AGL
Weather: no significant weather observed at this time

METAR text: PTRO 210550Z 06009G15KT 15SM SCT016TCU BKN120 BKN300 30/24 A2977 RMK TCU W
Conditions at: PTRO (BABELTHUAP/KOROR, FM) observed 0550 UTC 21 April 2019
Temperature: 30.0°C (86°F)
Dewpoint: 24.0°C (75°F) [RH = 70%]
Pressure (altimeter): 29.77 inches Hg (1008.2 mb)
Winds: from the ENE (60 degrees) at 10 MPH (9 knots; 4.6 m/s)
gusting to 17 MPH (15 knots; 7.7 m/s)
Visibility: 15 miles (24 km)
Ceiling: 12000 feet AGL
Clouds: scattered clouds at 1600 feet AGL
broken clouds at 12000 feet AGL
broken clouds at 30000 feet AGL
Weather: no significant weather observed at this time

METAR text: PTRO 210450Z 05010G16KT 15SM SCT017TCU BKN120 BKN300 30/23 A2979 RMK TCU W
Conditions at: PTRO (BABELTHUAP/KOROR, FM) observed 0450 UTC 21 April 2019
Temperature: 30.0°C (86°F)
Dewpoint: 23.0°C (73°F) [RH = 66%]
Pressure (altimeter): 29.79 inches Hg (1008.9 mb)
Winds: from the NE (50 degrees) at 12 MPH (10 knots; 5.1 m/s)
gusting to 18 MPH (16 knots; 8.2 m/s)
Visibility: 15 miles (24 km)
Ceiling: 12000 feet AGL
Clouds: scattered clouds at 1700 feet AGL
broken clouds at 12000 feet AGL
broken clouds at 30000 feet AGL
Weather: no significant weather observed at this time

METAR text: PTRO 210350Z 06011G17KT 15SM SCT017TCU BKN120 BKN300 30/23 A2981 RMK TCU W
Conditions at: PTRO (BABELTHUAP/KOROR, FM) observed 0350 UTC 21 April 2019
Temperature: 30.0°C (86°F)
Dewpoint: 23.0°C (73°F) [RH = 66%]
Pressure (altimeter): 29.81 inches Hg (1009.6 mb)
Winds: from the ENE (60 degrees) at 13 MPH (11 knots; 5.7 m/s)
gusting to 20 MPH (17 knots; 8.7 m/s)
Visibility: 15 miles (24 km)
Ceiling: 12000 feet AGL
Clouds: scattered clouds at 1700 feet AGL
broken clouds at 12000 feet AGL
broken clouds at 30000 feet AGL
Weather: no significant weather observed at this time

METAR text: PTRO 210250Z 05011G16KT 15SM SCT017TCU BKN120 BKN300 29/23 A2982 RMK TCU OHD AND W
Conditions at: PTRO (BABELTHUAP/KOROR, FM) observed 0250 UTC 21 April 2019
Temperature: 29.0°C (84°F)
Dewpoint: 23.0°C (73°F) [RH = 70%]
Pressure (altimeter): 29.82 inches Hg (1009.9 mb)
Winds: from the NE (50 degrees) at 13 MPH (11 knots; 5.7 m/s)
gusting to 18 MPH (16 knots; 8.2 m/s)
Visibility: 15 miles (24 km)
Ceiling: 12000 feet AGL
Clouds: scattered clouds at 1700 feet AGL
broken clouds at 12000 feet AGL
broken clouds at 30000 feet AGL
Weather: no significant weather observed at this time

METAR text: PTRO 210150Z 08011G16KT 15SM SCT017 SCT120 BKN300 30/23 A2982
Conditions at: PTRO (BABELTHUAP/KOROR, FM) observed 0150 UTC 21 April 2019
Temperature: 30.0°C (86°F)
Dewpoint: 23.0°C (73°F) [RH = 66%]
Pressure (altimeter): 29.82 inches Hg (1009.9 mb)
Winds: from the E (80 degrees) at 13 MPH (11 knots; 5.7 m/s)
gusting to 18 MPH (16 knots; 8.2 m/s)
Visibility: 15 miles (24 km)
Ceiling: 30000 feet AGL
Clouds: scattered clouds at 1700 feet AGL
scattered clouds at 12000 feet AGL
broken clouds at 30000 feet AGL
Weather: no significant weather observed at this time

METAR text: PTRO 210050Z 07012G18KT 15SM SCT017 SCT120 BKN300 29/23 A2982
Conditions at: PTRO (BABELTHUAP/KOROR, FM) observed 0050 UTC 21 April 2019
Temperature: 29.0°C (84°F)
Dewpoint: 23.0°C (73°F) [RH = 70%]
Pressure (altimeter): 29.82 inches Hg (1009.9 mb)
Winds: from the ENE (70 degrees) at 14 MPH (12 knots; 6.2 m/s)
gusting to 21 MPH (18 knots; 9.3 m/s)
Visibility: 15 miles (24 km)
Ceiling: 30000 feet AGL
Clouds: scattered clouds at 1700 feet AGL
scattered clouds at 12000 feet AGL
broken clouds at 30000 feet AGL
Weather: no significant weather observed at this time

METAR text: PTRO 202350Z 05012G19KT 15SM FEW016 SCT120 BKN300 29/23 A2983
Conditions at: PTRO (BABELTHUAP/KOROR, FM) observed 2350 UTC 20 April 2019
Temperature: 29.0°C (84°F)
Dewpoint: 23.0°C (73°F) [RH = 70%]
Pressure (altimeter): 29.83 inches Hg (1010.2 mb)
Winds: from the NE (50 degrees) at 14 MPH (12 knots; 6.2 m/s)
gusting to 22 MPH (19 knots; 9.8 m/s)
Visibility: 15 miles (24 km)
Ceiling: 30000 feet AGL
Clouds: few clouds at 1600 feet AGL
scattered clouds at 12000 feet AGL
broken clouds at 30000 feet AGL
Weather: no significant weather observed at this time

METAR text: PTRO 202250Z 05009G17KT 15SM FEW016 SCT120 SCT300 28/24 A2982
Conditions at: PTRO (BABELTHUAP/KOROR, FM) observed 2250 UTC 20 April 2019
Temperature: 28.0°C (82°F)
Dewpoint: 24.0°C (75°F) [RH = 79%]
Pressure (altimeter): 29.82 inches Hg (1009.9 mb)
Winds: from the NE (50 degrees) at 10 MPH (9 knots; 4.6 m/s)
gusting to 20 MPH (17 knots; 8.7 m/s)
Visibility: 15 miles (24 km)
Ceiling: at least 12,000 feet AGL
Clouds: few clouds at 1600 feet AGL
scattered clouds at 12000 feet AGL
scattered clouds at 30000 feet AGL
Weather: no significant weather observed at this time

METAR text: PTRO 202150Z 05008KT 15SM FEW016 SCT120 SCT300 27/24 A2979
Conditions at: PTRO (BABELTHUAP/KOROR, FM) observed 2150 UTC 20 April 2019
Temperature: 27.0°C (81°F)
Dewpoint: 24.0°C (75°F) [RH = 84%]
Pressure (altimeter): 29.79 inches Hg (1008.9 mb)
Winds: from the NE (50 degrees) at 9 MPH (8 knots; 4.1 m/s)
Visibility: 15 miles (24 km)
Ceiling: at least 12,000 feet AGL
Clouds: few clouds at 1600 feet AGL
scattered clouds at 12000 feet AGL
scattered clouds at 30000 feet AGL
Weather: no significant weather observed at this time

METAR text: PTRO 202050Z 06006KT 15SM SCT016CB BKN120 BKN300 25/23 A2978 RMK CB ALQDS
Conditions at: PTRO (BABELTHUAP/KOROR, FM) observed 2050 UTC 20 April 2019
Temperature: 25.0°C (77°F)
Dewpoint: 23.0°C (73°F) [RH = 89%]
Pressure (altimeter): 29.78 inches Hg (1008.5 mb)
Winds: from the ENE (60 degrees) at 7 MPH (6 knots; 3.1 m/s)
Visibility: 15 miles (24 km)
Ceiling: 12000 feet AGL
Clouds: scattered clouds at 1600 feet AGL
broken clouds at 12000 feet AGL
broken clouds at 30000 feet AGL
Weather: no significant weather observed at this time

METAR text: PTRO 201950Z 06006KT 14SM SCT016CB BKN300 25/23 A2977 RMK CB ALQDS
Conditions at: PTRO (BABELTHUAP/KOROR, FM) observed 1950 UTC 20 April 2019
Temperature: 25.0°C (77°F)
Dewpoint: 23.0°C (73°F) [RH = 89%]
Pressure (altimeter): 29.77 inches Hg (1008.2 mb)
Winds: from the ENE (60 degrees) at 7 MPH (6 knots; 3.1 m/s)
Visibility: 14 miles (23 km)
Ceiling: 30000 feet AGL
Clouds: scattered clouds at 1600 feet AGL
broken clouds at 30000 feet AGL
Weather: no significant weather observed at this time

METAR text: PTRO 201850Z 06006KT 13SM BKN016CB OVC120 25/23 A2976 RMK CB ALQDS
Conditions at: PTRO (BABELTHUAP/KOROR, FM) observed 1850 UTC 20 April 2019
Temperature: 25.0°C (77°F)
Dewpoint: 23.0°C (73°F) [RH = 89%]
Pressure (altimeter): 29.76 inches Hg (1007.9 mb)
Winds: from the ENE (60 degrees) at 7 MPH (6 knots; 3.1 m/s)
Visibility: 13 miles (21 km)
Ceiling: 1600 feet AGL
Clouds: broken clouds at 1600 feet AGL
overcast cloud deck at 12000 feet AGL
Weather: no significant weather observed at this time

METAR text: PTRO 201750Z 06003KT 13SM -SHRA OVC016CB 25/24 A2977 RMK CB ALQDS AND OHD
Conditions at: PTRO (BABELTHUAP/KOROR, FM) observed 1750 UTC 20 April 2019
Temperature: 25.0°C (77°F)
Dewpoint: 24.0°C (75°F) [RH = 94%]
Pressure (altimeter): 29.77 inches Hg (1008.2 mb)
Winds: from the ENE (60 degrees) at 3 MPH (3 knots; 1.5 m/s)
Visibility: 13 miles (21 km)
Ceiling: 1600 feet AGL
Clouds: overcast cloud deck at 1600 feet AGL
Weather: -SHRA  (light rain showers)

METAR text: PTRO 201730Z 09012G17KT 5SM +SHRA OVC016CB 25/24 A2978 RMK CB ALQDS AND OHD
Conditions at: PTRO (BABELTHUAP/KOROR, FM) observed 1730 UTC 20 April 2019
Temperature: 25.0°C (77°F)
Dewpoint: 24.0°C (75°F) [RH = 94%]
Pressure (altimeter): 29.78 inches Hg (1008.5 mb)
Winds: from the E (90 degrees) at 14 MPH (12 knots; 6.2 m/s)
gusting to 20 MPH (17 knots; 8.7 m/s)
Visibility: 5 miles ( 8 km)
Ceiling: 1600 feet AGL
Clouds: overcast cloud deck at 1600 feet AGL
Weather: +SHRA  (heavy rain showers)

METAR text: PTRO 201650Z 07005KT 15SM SCT016 SCT120 BKN300 26/23 A2978
Conditions at: PTRO (BABELTHUAP/KOROR, FM) observed 1650 UTC 20 April 2019
Temperature: 26.0°C (79°F)
Dewpoint: 23.0°C (73°F) [RH = 84%]
Pressure (altimeter): 29.78 inches Hg (1008.5 mb)
Winds: from the ENE (70 degrees) at 6 MPH (5 knots; 2.6 m/s)
Visibility: 15 miles (24 km)
Ceiling: 30000 feet AGL
Clouds: scattered clouds at 1600 feet AGL
scattered clouds at 12000 feet AGL
broken clouds at 30000 feet AGL
Weather: no significant weather observed at this time

METAR text: PTRO 201550Z 07005KT 15SM SCT016 SCT120 BKN300 27/23 A2979
Conditions at: PTRO (BABELTHUAP/KOROR, FM) observed 1550 UTC 20 April 2019
Temperature: 27.0°C (81°F)
Dewpoint: 23.0°C (73°F) [RH = 79%]
Pressure (altimeter): 29.79 inches Hg (1008.9 mb)
Winds: from the ENE (70 degrees) at 6 MPH (5 knots; 2.6 m/s)
Visibility: 15 miles (24 km)
Ceiling: 30000 feet AGL
Clouds: scattered clouds at 1600 feet AGL
scattered clouds at 12000 feet AGL
broken clouds at 30000 feet AGL
Weather: no significant weather observed at this time

METAR text: PTRO 201453Z 07008G14KT 15SM SCT016 BKN120 BKN300 27/24 A2980
Conditions at: PTRO (BABELTHUAP/KOROR, FM) observed 1453 UTC 20 April 2019
Temperature: 27.0°C (81°F)
Dewpoint: 24.0°C (75°F) [RH = 84%]
Pressure (altimeter): 29.80 inches Hg (1009.2 mb)
Winds: from the ENE (70 degrees) at 9 MPH (8 knots; 4.1 m/s)
gusting to 16 MPH (14 knots; 7.2 m/s)
Visibility: 15 miles (24 km)
Ceiling: 12000 feet AGL
Clouds: scattered clouds at 1600 feet AGL
broken clouds at 12000 feet AGL
broken clouds at 30000 feet AGL
Weather: no significant weather observed at this time

Forecast for: PTRO (BABELTHUAP/KOROR, FM)
Text: PTRO 212320Z 2200/2224 05011KT P6SM SCT016 SCT120
Forecast period: 0000 UTC 22 April 2019 to 0000 UTC 23 April 2019
Forecast type: FROM: standard forecast or significant change
Winds: from the NE (50 degrees) at 13 MPH (11 knots; 5.7 m/s)
Visibility: 6 or more miles 10+ km)
Ceiling: at least 12,000 feet AGL
Clouds: scattered clouds at 1600 feet AGL
scattered clouds at 12000 feet AGL
Weather: no significant weather forecast for this period